This is the latest recevied weather packets stored in our database for station/object OK2MD-6. If no packets are shown the sender has not sent any weather packets the latest 10 day(s).
| Time | Temp. | Humidity | Pressure | Rain* | Wind** | Luminosity | Snow |
|---|---|---|---|---|---|---|---|
| 1777318806 | 11.11° C | 55% | 1020.1 hPa | 0 mm | - | 0 W/m² | - |
| 1777299604 | 18.33° C | 31% | 1020.2 hPa | 0 mm | - | 571 W/m² | - |
| 1777298404 | 18.33° C | 31% | 1020.3 hPa | 0 mm | - | 628 W/m² | - |
| 1777296006 | 17.22° C | 33% | 1020.7 hPa | 0 mm | - | 691 W/m² | - |
| 1777292405 | 17.22° C | 34% | 1021.2 hPa | 0 mm | - | 802 W/m² | - |
| 1777287604 | 16.11° C | 38% | 1022.3 hPa | 0 mm | - | 766 W/m² | - |
| 1777279204 | 13.33° C | 42% | 1023.4 hPa | 0 mm | - | 724 W/m² | - |
| 1777272006 | 8.89° C | 54% | 1023.5 hPa | 0 mm | - | 434 W/m² | - |
| 1777268404 | 5.56° C | 70% | 1023.7 hPa | 0 mm | - | 49 W/m² | - |
| 1777263626 | 1.67° C | 81% | 1023.5 hPa | 0 mm | - | 19 W/m² | - |
| 1777261227 | 1.67° C | 82% | 1023.5 hPa | 0 mm | - | 0 W/m² | - |
| 1777258804 | 1.67° C | 80% | 1023.4 hPa | 0 mm | - | 0 W/m² | - |
| 1777257605 | 2.22° C | 80% | 1023.4 hPa | 0 mm | - | 0 W/m² | - |
| 1777245625 | 3.33° C | 76% | 1024 hPa | 0 mm | - | 0 W/m² | - |
| 1777243204 | 3.33° C | 75% | 1024 hPa | 0 mm | - | 0 W/m² | - |
| 1777240804 | 4.44° C | 72% | 1023.8 hPa | 0 mm | - | 0 W/m² | - |
| 1777234804 | 6.11° C | 67% | 1023.4 hPa | 0 mm | - | 0 W/m² | - |
| 1777231225 | 7.22° C | 62% | 1023.3 hPa | 0 mm | - | 0 W/m² | - |
| 1777228804 | 8.89° C | 57% | 1022.7 hPa | 0 mm | - | 0 W/m² | - |
| 1777212004 | 15° C | 37% | 1021.9 hPa | 0 mm | - | 619 W/m² | - |
| 1777203604 | 13.33° C | 42% | 1022 hPa | 0 mm | - | 831 W/m² | - |
| 1777202404 | 13.33° C | 39% | 1022 hPa | 0 mm | - | 847 W/m² | - |
| 1777197605 | 12.22° C | 44% | 1021.9 hPa | 0 mm | - | 838 W/m² | - |
| 1777196406 | 11.67° C | 44% | 1021.9 hPa | 0 mm | - | 888 W/m² | - |
| 1777194025 | 11.11° C | 48% | 1021.7 hPa | 0 mm | - | 789 W/m² | - |
* Rain latest hour (hover to see other rain measurements)
** Current wind speed in m/s (hover to see current wind gust speed)